createdAt,value
2023-01-31T00:01:23.395Z,5.85
2023-01-31T00:03:54.549Z,5.90
2023-01-31T00:06:26.159Z,5.91
2023-01-31T00:08:54.566Z,5.96
2023-01-31T00:11:24.193Z,5.96
2023-01-31T00:13:52.048Z,6.00
2023-01-31T00:16:20.699Z,6.08
2023-01-31T00:18:48.838Z,5.91
2023-01-31T00:21:18.147Z,5.85
2023-01-31T00:23:48.134Z,5.78
2023-01-31T00:26:18.906Z,5.73
2023-01-31T00:28:47.443Z,5.86
2023-01-31T00:31:16.789Z,5.85
2023-01-31T00:33:46.028Z,5.79
2023-01-31T00:36:16.130Z,5.66
2023-01-31T00:38:44.723Z,5.94
2023-01-31T00:41:13.682Z,5.69
2023-01-31T00:43:44.281Z,5.64
2023-01-31T00:46:12.196Z,5.60
2023-01-31T00:48:40.156Z,5.72
2023-01-31T00:51:08.148Z,5.65
2023-01-31T00:53:36.685Z,5.66
2023-01-31T00:56:07.319Z,5.79
2023-01-31T00:58:37.339Z,5.81
2023-01-31T01:01:09.245Z,5.81
2023-01-31T01:03:37.645Z,5.80
2023-01-31T01:06:05.881Z,5.96
2023-01-31T01:08:34.630Z,5.88
2023-01-31T01:11:06.567Z,5.64
2023-01-31T01:13:36.526Z,5.74
2023-01-31T01:16:07.083Z,5.82
2023-01-31T01:18:35.794Z,5.78
2023-01-31T01:21:08.852Z,5.73
2023-01-31T01:23:36.659Z,5.75
2023-01-31T01:26:05.307Z,5.77
2023-01-31T01:28:36.402Z,5.88
2023-01-31T01:31:07.713Z,5.80
2023-01-31T01:33:35.450Z,5.63
2023-01-31T01:36:03.667Z,5.76
2023-01-31T01:38:31.379Z,5.79
2023-01-31T01:41:01.358Z,5.76
2023-01-31T01:43:46.560Z,5.86
2023-01-31T01:46:18.814Z,5.77
2023-01-31T01:48:49.132Z,5.65
2023-01-31T01:51:19.475Z,5.52
2023-01-31T01:53:50.135Z,5.53
2023-01-31T01:56:19.857Z,5.59
2023-01-31T01:58:53.769Z,5.66
2023-01-31T02:01:21.848Z,5.66
2023-01-31T02:03:50.375Z,5.76
2023-01-31T02:06:17.944Z,5.77
2023-01-31T02:08:45.735Z,5.65
2023-01-31T02:11:18.231Z,5.52
2023-01-31T02:13:47.332Z,5.69
2023-01-31T02:16:16.736Z,5.54
2023-01-31T02:18:44.671Z,5.53
2023-01-31T02:21:27.388Z,5.46
2023-01-31T02:24:20.551Z,5.58
2023-01-31T02:27:14.236Z,5.61
2023-01-31T02:30:04.569Z,5.76
2023-01-31T02:32:46.810Z,5.77
2023-01-31T02:35:23.025Z,5.56
2023-01-31T02:38:03.297Z,5.54
2023-01-31T02:40:38.487Z,5.75
2023-01-31T02:43:10.708Z,5.70
2023-01-31T02:45:41.797Z,5.60
2023-01-31T02:48:17.972Z,5.59
2023-01-31T02:50:48.426Z,5.51
2023-01-31T02:53:18.413Z,5.56
2023-01-31T02:56:08.627Z,5.61
2023-01-31T02:58:39.057Z,5.69
2023-01-31T03:01:07.270Z,5.60
2023-01-31T03:03:38.786Z,5.82
2023-01-31T03:06:42.340Z,5.76
2023-01-31T03:09:13.675Z,5.83
2023-01-31T03:11:47.510Z,5.91
2023-01-31T03:14:21.514Z,5.83
2023-01-31T03:17:10.730Z,5.87
2023-01-31T03:19:46.519Z,5.99
2023-01-31T03:22:17.154Z,6.10
2023-01-31T03:24:47.512Z,6.13
2023-01-31T03:27:16.747Z,6.08
2023-01-31T03:33:26.208Z,5.93
2023-01-31T03:36:00.466Z,5.75
2023-01-31T03:38:32.652Z,5.75
2023-01-31T03:41:05.631Z,5.75
2023-01-31T03:43:38.720Z,5.85
2023-01-31T03:46:09.649Z,5.79
2023-01-31T03:48:40.318Z,5.74
2023-01-31T03:51:13.929Z,5.77
2023-01-31T03:53:44.836Z,5.82
2023-01-31T03:56:17.230Z,5.85
2023-01-31T03:58:51.273Z,5.87
2023-01-31T04:01:20.154Z,5.55
2023-01-31T04:03:50.647Z,5.81
2023-01-31T04:06:19.561Z,5.69
2023-01-31T04:08:47.154Z,5.66
2023-01-31T04:11:15.716Z,5.75
2023-01-31T04:13:43.759Z,5.76
2023-01-31T04:16:11.459Z,5.71
2023-01-31T04:18:38.969Z,5.70
2023-01-31T04:21:06.796Z,5.67
2023-01-31T04:23:35.576Z,5.51
2023-01-31T04:26:03.285Z,5.55
2023-01-31T04:28:30.743Z,5.56
2023-01-31T04:30:58.859Z,5.61
2023-01-31T04:33:26.418Z,5.53
2023-01-31T04:35:53.980Z,5.65
2023-01-31T04:38:21.538Z,5.54
2023-01-31T04:40:50.503Z,5.66
2023-01-31T04:43:18.044Z,5.54
2023-01-31T04:45:45.670Z,5.56
2023-01-31T04:48:13.165Z,5.60
2023-01-31T04:50:40.660Z,5.57
2023-01-31T04:53:09.332Z,5.59
2023-01-31T04:55:36.981Z,5.71
2023-01-31T04:58:07.130Z,5.53
2023-01-31T05:00:35.502Z,5.62
2023-01-31T05:03:03.069Z,5.60
2023-01-31T05:05:30.882Z,5.66
2023-01-31T05:07:58.515Z,5.70
2023-01-31T05:10:26.040Z,5.67
2023-01-31T05:12:53.477Z,5.65
2023-01-31T05:15:22.912Z,5.61
2023-01-31T05:17:53.806Z,5.86
2023-01-31T05:20:22.136Z,5.66
2023-01-31T05:22:49.656Z,5.74
2023-01-31T05:25:17.312Z,5.73
2023-01-31T05:27:45.664Z,5.58
2023-01-31T05:30:13.817Z,5.66
2023-01-31T05:32:45.802Z,5.74
2023-01-31T05:35:13.781Z,5.55
2023-01-31T05:37:42.519Z,5.59
2023-01-31T05:40:11.448Z,5.62
2023-01-31T05:42:38.910Z,5.71
2023-01-31T05:45:07.649Z,5.75
2023-01-31T05:47:35.240Z,5.77
2023-01-31T05:50:04.627Z,5.71
2023-01-31T05:52:32.467Z,5.64
2023-01-31T05:55:00.374Z,5.61
2023-01-31T05:57:28.494Z,5.72
2023-01-31T05:59:56.152Z,5.71
2023-01-31T06:02:24.110Z,5.77
2023-01-31T06:04:51.761Z,5.82
2023-01-31T06:12:52.642Z,5.61
2023-01-31T06:15:20.242Z,5.76
2023-01-31T06:17:48.088Z,5.83
2023-01-31T06:20:15.640Z,5.70
2023-01-31T06:22:44.603Z,5.85
2023-01-31T06:25:12.200Z,5.69
2023-01-31T06:27:39.637Z,5.85
2023-01-31T06:30:08.208Z,5.79
2023-01-31T06:32:35.811Z,5.88
2023-01-31T06:35:03.743Z,5.78
2023-01-31T06:37:31.920Z,5.76
2023-01-31T06:40:01.163Z,5.76
2023-01-31T06:42:28.618Z,5.83
2023-01-31T06:44:56.369Z,5.71
2023-01-31T06:47:23.985Z,5.79
2023-01-31T06:49:51.450Z,5.66
2023-01-31T06:52:18.896Z,5.85
2023-01-31T06:54:46.352Z,5.68
2023-01-31T06:57:15.094Z,5.82
2023-01-31T06:59:42.483Z,5.84
2023-01-31T07:02:10.679Z,5.79
2023-01-31T07:04:38.110Z,5.80
2023-01-31T07:07:05.640Z,5.82
2023-01-31T07:09:33.476Z,5.81
2023-01-31T07:12:00.976Z,5.84
2023-01-31T07:14:30.188Z,5.70
2023-01-31T07:16:57.611Z,5.68
2023-01-31T07:19:25.070Z,5.82
2023-01-31T07:21:52.938Z,5.87
2023-01-31T07:24:20.355Z,5.71
2023-01-31T07:26:47.777Z,5.81
2023-01-31T07:29:15.169Z,5.88
2023-01-31T07:31:43.978Z,5.79
2023-01-31T07:34:11.405Z,5.79
2023-01-31T07:36:38.817Z,5.82
2023-01-31T07:39:06.559Z,5.78
2023-01-31T07:41:33.987Z,5.76
2023-01-31T07:44:01.489Z,5.87
2023-01-31T07:46:28.925Z,5.67
2023-01-31T07:48:57.739Z,5.63
2023-01-31T07:51:25.170Z,5.68
2023-01-31T07:53:52.769Z,5.85
2023-01-31T07:56:22.212Z,5.82
2023-01-31T07:58:50.980Z,5.89
2023-01-31T08:01:40.364Z,5.81
2023-01-31T08:04:21.058Z,5.84
2023-01-31T08:06:50.327Z,5.85
2023-01-31T08:09:17.773Z,5.79
2023-01-31T08:11:45.132Z,5.83
2023-01-31T08:14:12.592Z,5.87
2023-01-31T08:16:40.130Z,5.83
2023-01-31T08:19:08.928Z,5.87
2023-01-31T08:21:36.351Z,5.81
2023-01-31T08:24:03.918Z,5.73
2023-01-31T08:26:31.802Z,5.94
2023-01-31T08:29:00.009Z,5.88
2023-01-31T08:31:29.442Z,5.81
2023-01-31T08:33:57.661Z,5.84
2023-01-31T08:36:27.720Z,5.86
2023-01-31T08:38:55.997Z,5.85
2023-01-31T08:41:24.664Z,5.78
2023-01-31T08:43:56.799Z,5.89
2023-01-31T08:46:26.648Z,6.05
2023-01-31T08:48:54.448Z,5.99
2023-01-31T08:51:22.796Z,5.94
2023-01-31T08:53:52.156Z,6.09
2023-01-31T08:56:21.249Z,5.97
2023-01-31T08:58:49.119Z,6.02
2023-01-31T09:01:17.937Z,6.10
2023-01-31T09:03:46.325Z,5.95
2023-01-31T09:06:16.508Z,5.98
2023-01-31T09:08:44.095Z,6.04
2023-01-31T09:11:17.132Z,6.09
2023-01-31T09:13:45.107Z,6.08
2023-01-31T09:16:14.168Z,6.14
2023-01-31T09:18:42.300Z,6.15
2023-01-31T09:21:11.372Z,6.09
2023-01-31T09:23:42.395Z,6.05
2023-01-31T09:26:10.738Z,6.09
2023-01-31T09:28:42.199Z,6.17
2023-01-31T09:31:11.446Z,6.09
2023-01-31T09:33:38.954Z,6.16
2023-01-31T09:36:08.194Z,6.16
2023-01-31T09:38:36.511Z,6.09
2023-01-31T09:41:06.491Z,6.15
2023-01-31T09:43:36.556Z,6.21
2023-01-31T09:46:07.677Z,6.09
2023-01-31T09:48:36.976Z,6.20
2023-01-31T09:51:05.842Z,6.14
2023-01-31T09:53:36.398Z,6.27
2023-01-31T09:56:16.558Z,6.13
2023-01-31T09:58:53.756Z,6.17
2023-01-31T10:01:26.518Z,6.23
2023-01-31T10:04:09.365Z,6.20
2023-01-31T10:06:41.584Z,6.03
2023-01-31T10:09:13.145Z,6.22
2023-01-31T10:11:44.627Z,6.24
2023-01-31T10:14:22.162Z,6.17
2023-01-31T10:16:58.534Z,6.05
2023-01-31T10:19:29.407Z,6.17
2023-01-31T10:22:00.639Z,6.19
2023-01-31T10:24:31.606Z,6.21
2023-01-31T10:27:06.477Z,6.23
2023-01-31T10:29:36.377Z,6.30
2023-01-31T10:32:06.725Z,6.13
2023-01-31T10:34:40.039Z,6.29
2023-01-31T10:37:11.303Z,6.27
2023-01-31T10:39:43.870Z,6.16
2023-01-31T10:42:16.813Z,6.25
2023-01-31T10:44:49.753Z,6.17
2023-01-31T10:47:19.981Z,6.20
2023-01-31T10:49:48.833Z,6.28
2023-01-31T10:52:29.419Z,6.17
2023-01-31T10:55:05.620Z,6.24
2023-01-31T10:57:33.750Z,6.30
2023-01-31T11:00:01.280Z,6.21
2023-01-31T11:02:31.108Z,6.24
2023-01-31T11:04:59.874Z,6.24
2023-01-31T11:07:30.487Z,6.32
2023-01-31T11:09:58.724Z,6.28
2023-01-31T11:12:41.998Z,6.30
2023-01-31T11:15:16.867Z,6.30
2023-01-31T11:17:47.298Z,6.27
2023-01-31T11:20:25.121Z,6.36
2023-01-31T11:22:53.590Z,6.32
2023-01-31T11:25:22.573Z,6.36
2023-01-31T11:27:50.700Z,6.29
2023-01-31T11:30:23.993Z,6.30
2023-01-31T11:32:53.058Z,6.48
2023-01-31T11:35:26.984Z,6.44
2023-01-31T11:37:56.922Z,6.44
2023-01-31T11:40:30.426Z,6.38
2023-01-31T11:42:59.487Z,6.45
2023-01-31T11:45:28.804Z,6.52
2023-01-31T11:47:59.002Z,6.35
2023-01-31T11:50:31.748Z,6.45
2023-01-31T11:53:00.734Z,6.45
2023-01-31T11:55:29.285Z,6.44
2023-01-31T11:57:59.128Z,6.42
2023-01-31T12:00:28.439Z,6.55
2023-01-31T12:03:03.012Z,6.48
2023-01-31T12:05:39.267Z,6.55
2023-01-31T12:08:06.978Z,6.46
2023-01-31T12:10:43.516Z,6.52
2023-01-31T12:13:19.208Z,6.52
2023-01-31T12:15:51.641Z,6.61
2023-01-31T12:18:40.989Z,6.61
2023-01-31T12:21:15.222Z,6.59
2023-01-31T12:23:53.080Z,6.65
2023-01-31T12:26:27.409Z,6.62
2023-01-31T12:29:16.711Z,6.65
2023-01-31T12:32:05.558Z,6.61
2023-01-31T12:34:59.469Z,6.72
2023-01-31T12:37:37.112Z,6.71
2023-01-31T12:40:24.735Z,6.69
2023-01-31T12:42:57.831Z,6.70
2023-01-31T12:45:39.585Z,6.65
2023-01-31T12:48:26.545Z,6.68
2023-01-31T12:51:03.564Z,6.75
2023-01-31T12:53:41.120Z,6.78
2023-01-31T12:56:24.636Z,6.78
2023-01-31T12:59:13.834Z,6.76
2023-01-31T13:01:47.736Z,6.76
2023-01-31T13:04:30.428Z,6.83
2023-01-31T13:07:00.678Z,6.88
2023-01-31T13:09:30.074Z,6.95
2023-01-31T13:12:01.863Z,7.01
2023-01-31T13:14:33.700Z,6.91
2023-01-31T13:17:03.651Z,6.93
2023-01-31T13:19:36.334Z,6.97
2023-01-31T13:22:11.938Z,6.94
2023-01-31T13:24:41.917Z,6.98
2023-01-31T13:27:12.910Z,7.05
2023-01-31T13:29:42.466Z,7.04
2023-01-31T13:32:13.227Z,7.00
2023-01-31T13:34:51.211Z,7.07
2023-01-31T13:37:21.310Z,7.10
2023-01-31T13:39:51.390Z,7.12
2023-01-31T13:42:19.383Z,7.08
2023-01-31T13:44:48.123Z,7.06
2023-01-31T13:47:17.438Z,7.07
2023-01-31T13:49:49.715Z,7.17
2023-01-31T13:52:22.208Z,7.13
2023-01-31T13:54:51.818Z,7.16
2023-01-31T13:57:25.499Z,7.21
2023-01-31T13:59:54.535Z,7.20
2023-01-31T14:02:22.231Z,7.26
2023-01-31T14:04:49.783Z,7.31
2023-01-31T14:07:24.210Z,7.20
2023-01-31T14:10:27.400Z,7.26
2023-01-31T14:13:28.472Z,7.29
2023-01-31T14:15:57.244Z,7.37
2023-01-31T14:18:40.503Z,7.25
2023-01-31T14:21:53.941Z,7.30
2023-01-31T14:25:04.474Z,7.26
2023-01-31T14:27:38.703Z,7.38
2023-01-31T14:30:34.855Z,7.34
2023-01-31T14:33:08.114Z,7.39
2023-01-31T14:35:57.592Z,7.33
2023-01-31T14:38:32.233Z,7.38
2023-01-31T14:41:06.910Z,7.42
2023-01-31T14:43:47.202Z,7.41
2023-01-31T14:46:28.430Z,7.41
2023-01-31T14:49:30.766Z,7.39
2023-01-31T14:52:18.335Z,7.43
2023-01-31T14:54:58.427Z,7.42
2023-01-31T14:57:28.305Z,7.44
2023-01-31T14:59:57.948Z,7.37
2023-01-31T15:02:44.088Z,7.45
2023-01-31T15:05:15.133Z,7.48
2023-01-31T15:07:59.710Z,7.44
2023-01-31T15:10:54.946Z,7.50
2023-01-31T15:13:44.218Z,7.47
2023-01-31T15:16:18.993Z,7.45
2023-01-31T15:18:47.674Z,7.39
2023-01-31T15:21:21.200Z,7.49
2023-01-31T15:23:49.252Z,7.48
2023-01-31T15:26:17.892Z,7.55
2023-01-31T15:28:47.583Z,7.56
2023-01-31T15:31:19.095Z,7.57
2023-01-31T15:33:50.968Z,7.62
2023-01-31T15:36:21.669Z,7.60
2023-01-31T15:38:54.002Z,7.65
2023-01-31T15:41:25.023Z,7.68
2023-01-31T15:43:55.040Z,7.63
2023-01-31T15:46:25.134Z,7.63
2023-01-31T15:48:52.791Z,7.63
2023-01-31T15:51:21.051Z,7.69
2023-01-31T15:53:49.036Z,7.72
2023-01-31T15:56:19.904Z,7.65
2023-01-31T15:58:49.433Z,7.72
2023-01-31T16:01:18.638Z,7.79
2023-01-31T16:03:56.993Z,7.74
2023-01-31T16:06:27.560Z,7.71
2023-01-31T16:09:03.805Z,7.78
2023-01-31T16:11:34.112Z,7.68
2023-01-31T16:14:03.977Z,7.75
2023-01-31T16:16:35.076Z,7.82
2023-01-31T16:19:03.085Z,7.76
2023-01-31T16:21:32.520Z,7.76
2023-01-31T16:24:02.616Z,7.73
2023-01-31T16:26:33.796Z,7.71
2023-01-31T16:29:07.468Z,7.76
2023-01-31T16:31:46.170Z,7.75
2023-01-31T16:34:24.029Z,7.79
2023-01-31T16:37:00.356Z,7.78
2023-01-31T16:39:35.492Z,7.71
2023-01-31T16:42:04.356Z,7.77
2023-01-31T16:44:35.988Z,7.77
2023-01-31T16:47:04.954Z,7.70
2023-01-31T16:49:34.679Z,7.70
2023-01-31T16:52:16.140Z,7.73
2023-01-31T16:54:45.783Z,7.70
2023-01-31T16:57:23.774Z,7.64
2023-01-31T16:59:53.230Z,7.73
2023-01-31T17:02:26.005Z,7.69
2023-01-31T17:04:56.169Z,7.76
2023-01-31T17:07:25.463Z,7.73
2023-01-31T17:09:55.792Z,7.79
2023-01-31T17:12:25.498Z,7.74
2023-01-31T17:14:57.109Z,7.69
2023-01-31T17:17:27.941Z,7.66
2023-01-31T17:19:55.562Z,7.72
2023-01-31T17:22:23.414Z,7.60
2023-01-31T17:24:51.290Z,7.67
2023-01-31T17:27:22.080Z,7.52
2023-01-31T17:29:50.150Z,7.65
2023-01-31T17:32:19.247Z,7.71
2023-01-31T17:34:48.864Z,7.73
2023-01-31T17:37:20.901Z,7.62
2023-01-31T17:39:51.158Z,7.40
2023-01-31T17:42:21.702Z,7.34
2023-01-31T17:44:49.209Z,7.31
2023-01-31T17:47:17.379Z,7.38
2023-01-31T17:49:45.343Z,7.36
2023-01-31T17:52:14.330Z,7.20
2023-01-31T17:54:41.814Z,7.36
2023-01-31T17:57:09.290Z,7.43
2023-01-31T17:59:36.785Z,7.42
2023-01-31T18:02:04.401Z,7.33
2023-01-31T18:04:31.971Z,7.39
2023-01-31T18:06:59.426Z,7.16
2023-01-31T18:09:28.399Z,7.14
2023-01-31T18:11:55.947Z,7.20
2023-01-31T18:14:23.476Z,7.11
2023-01-31T18:16:53.975Z,7.23
2023-01-31T18:19:21.756Z,7.07
2023-01-31T18:21:55.064Z,7.09
2023-01-31T18:24:23.077Z,7.20
2023-01-31T18:26:52.240Z,7.10
2023-01-31T18:29:20.887Z,7.24
2023-01-31T18:31:48.921Z,7.23
2023-01-31T18:34:16.923Z,7.27
2023-01-31T18:36:44.332Z,7.17
2023-01-31T18:39:12.077Z,7.21
2023-01-31T18:41:39.592Z,7.08
2023-01-31T18:44:08.515Z,6.99
2023-01-31T18:46:36.076Z,7.18
2023-01-31T18:49:04.471Z,7.24
2023-01-31T18:51:31.983Z,7.22
2023-01-31T18:53:59.636Z,7.22
2023-01-31T18:56:27.180Z,7.12
2023-01-31T18:58:55.492Z,7.02
2023-01-31T19:01:25.488Z,6.97
2023-01-31T19:03:55.161Z,6.99
2023-01-31T19:06:23.982Z,7.15
2023-01-31T19:08:52.731Z,7.16
2023-01-31T19:11:22.243Z,7.05
2023-01-31T19:13:49.918Z,7.01
2023-01-31T19:16:19.072Z,7.13
2023-01-31T19:18:48.471Z,7.15
2023-01-31T19:21:16.838Z,7.15
2023-01-31T19:23:44.694Z,7.10
2023-01-31T19:26:12.208Z,7.15
2023-01-31T19:28:40.577Z,7.17
2023-01-31T19:31:10.948Z,7.10
2023-01-31T19:33:39.930Z,7.04
2023-01-31T19:36:13.168Z,7.10
2023-01-31T19:38:40.977Z,6.98
2023-01-31T19:41:09.916Z,7.05
2023-01-31T19:43:37.807Z,6.97
2023-01-31T19:46:06.199Z,6.90
2023-01-31T19:48:33.917Z,7.05
2023-01-31T19:51:07.547Z,7.05
2023-01-31T19:53:36.796Z,6.99
2023-01-31T19:56:04.831Z,7.03
2023-01-31T19:58:32.338Z,7.08
2023-01-31T20:00:59.945Z,7.04
2023-01-31T20:03:27.448Z,6.97
2023-01-31T20:05:55.025Z,6.89
2023-01-31T20:08:24.977Z,6.82
2023-01-31T20:10:56.175Z,6.73
2023-01-31T20:13:23.913Z,6.83
2023-01-31T20:15:57.903Z,6.95
2023-01-31T20:18:25.947Z,7.04
2023-01-31T20:20:53.963Z,7.11
2023-01-31T20:23:21.686Z,6.92
2023-01-31T20:25:50.050Z,6.94
2023-01-31T20:28:19.623Z,6.96
2023-01-31T20:30:48.095Z,6.90
2023-01-31T20:33:16.417Z,6.99
2023-01-31T20:35:44.515Z,6.79
2023-01-31T20:38:12.457Z,6.90
2023-01-31T20:40:39.983Z,6.87
2023-01-31T20:43:07.693Z,6.85
2023-01-31T20:45:36.477Z,6.97
2023-01-31T20:48:06.429Z,6.92
2023-01-31T20:50:35.286Z,6.89
2023-01-31T20:53:05.553Z,6.91
2023-01-31T20:55:33.215Z,6.91
2023-01-31T20:58:00.617Z,6.98
2023-01-31T21:00:28.139Z,6.96
2023-01-31T21:02:56.886Z,6.94
2023-01-31T21:05:24.317Z,6.94
2023-01-31T21:07:51.851Z,6.95
2023-01-31T21:10:19.672Z,7.00
2023-01-31T21:12:47.322Z,7.02
2023-01-31T21:15:14.760Z,6.96
2023-01-31T21:17:42.203Z,6.84
2023-01-31T21:20:12.976Z,6.85
2023-01-31T21:22:40.522Z,6.95
2023-01-31T21:25:08.573Z,6.87
2023-01-31T21:27:36.014Z,6.94
2023-01-31T21:30:03.562Z,6.85
2023-01-31T21:32:30.995Z,6.80
2023-01-31T21:34:58.497Z,6.79
2023-01-31T21:37:27.316Z,6.89
2023-01-31T21:39:54.855Z,6.86
2023-01-31T21:42:21.414Z,7.03
2023-01-31T21:44:49.190Z,7.00
2023-01-31T21:47:17.270Z,6.88
2023-01-31T21:49:44.794Z,6.89
2023-01-31T21:52:12.136Z,6.87
2023-01-31T21:54:41.000Z,6.97
2023-01-31T21:57:08.425Z,6.88
2023-01-31T21:59:36.486Z,6.78
2023-01-31T22:02:04.078Z,6.78
2023-01-31T22:04:31.568Z,6.81
2023-01-31T22:06:59.305Z,6.73
2023-01-31T22:09:27.515Z,6.59
2023-01-31T22:11:56.427Z,6.70
2023-01-31T22:14:24.031Z,6.71
2023-01-31T22:16:51.890Z,6.52
2023-01-31T22:19:19.439Z,6.60
2023-01-31T22:21:46.891Z,6.65
2023-01-31T22:24:14.513Z,6.57
2023-01-31T22:26:43.452Z,6.42
2023-01-31T22:29:15.216Z,6.58
2023-01-31T22:31:43.720Z,6.37
2023-01-31T22:34:13.979Z,6.44
2023-01-31T22:36:42.193Z,6.65
2023-01-31T22:39:12.643Z,6.45
2023-01-31T22:41:40.700Z,6.60
2023-01-31T22:44:08.322Z,6.52
2023-01-31T22:46:37.504Z,6.67
2023-01-31T22:49:05.183Z,6.44
2023-01-31T22:51:32.976Z,6.58
2023-01-31T22:54:01.178Z,6.72
2023-01-31T22:56:29.939Z,6.64
2023-01-31T22:58:58.072Z,6.60
2023-01-31T23:01:27.605Z,6.55
2023-01-31T23:03:58.280Z,6.58
2023-01-31T23:06:26.278Z,6.60
2023-01-31T23:08:53.919Z,6.50
2023-01-31T23:11:21.524Z,6.67
2023-01-31T23:13:49.190Z,6.71
2023-01-31T23:16:19.020Z,6.47
2023-01-31T23:18:46.605Z,6.59
2023-01-31T23:21:18.390Z,6.63
2023-01-31T23:23:46.691Z,6.55
2023-01-31T23:26:14.401Z,6.52
2023-01-31T23:28:42.114Z,6.66
2023-01-31T23:31:09.650Z,6.62
2023-01-31T23:33:37.420Z,6.61
2023-01-31T23:36:05.650Z,6.69
2023-01-31T23:38:34.671Z,6.62
2023-01-31T23:41:02.095Z,6.70
2023-01-31T23:43:29.773Z,6.63
2023-01-31T23:45:57.264Z,6.69
2023-01-31T23:48:24.747Z,6.65
2023-01-31T23:50:52.324Z,6.78
2023-01-31T23:53:19.814Z,6.70
2023-01-31T23:55:48.695Z,6.72
2023-01-31T23:58:16.162Z,6.71
